sensor_id;sensor_type;location;lat;lon;timestamp;temperature;humidity
75615;DHT22;64199;48.578;-4.520;2023-01-29T00:02:00;22.90;43.70
75615;DHT22;64199;48.578;-4.520;2023-01-29T00:04:27;22.90;43.70
75615;DHT22;64199;48.578;-4.520;2023-01-29T00:06:53;22.80;43.60
75615;DHT22;64199;48.578;-4.520;2023-01-29T00:09:19;22.90;43.70
75615;DHT22;64199;48.578;-4.520;2023-01-29T00:11:44;22.90;43.70
75615;DHT22;64199;48.578;-4.520;2023-01-29T00:14:10;22.90;43.70
75615;DHT22;64199;48.578;-4.520;2023-01-29T00:17:44;22.90;43.70
75615;DHT22;64199;48.578;-4.520;2023-01-29T00:20:09;22.90;43.70
75615;DHT22;64199;48.578;-4.520;2023-01-29T00:22:35;22.90;43.70
75615;DHT22;64199;48.578;-4.520;2023-01-29T00:25:01;22.90;43.70
75615;DHT22;64199;48.578;-4.520;2023-01-29T00:27:26;22.90;43.60
75615;DHT22;64199;48.578;-4.520;2023-01-29T00:29:52;22.90;43.60
75615;DHT22;64199;48.578;-4.520;2023-01-29T00:32:34;22.90;43.60
75615;DHT22;64199;48.578;-4.520;2023-01-29T00:35:00;22.90;43.70
75615;DHT22;64199;48.578;-4.520;2023-01-29T00:37:26;22.90;43.70
75615;DHT22;64199;48.578;-4.520;2023-01-29T00:39:51;22.90;43.60
75615;DHT22;64199;48.578;-4.520;2023-01-29T00:42:17;22.90;43.60
75615;DHT22;64199;48.578;-4.520;2023-01-29T00:45:01;22.90;43.60
75615;DHT22;64199;48.578;-4.520;2023-01-29T00:47:27;22.90;43.60
75615;DHT22;64199;48.578;-4.520;2023-01-29T00:49:58;22.90;43.60
75615;DHT22;64199;48.578;-4.520;2023-01-29T00:52:24;22.90;43.60
75615;DHT22;64199;48.578;-4.520;2023-01-29T00:54:54;22.90;43.60
75615;DHT22;64199;48.578;-4.520;2023-01-29T00:57:20;22.90;43.60
75615;DHT22;64199;48.578;-4.520;2023-01-29T00:59:46;23.00;43.60
75615;DHT22;64199;48.578;-4.520;2023-01-29T01:02:11;23.00;43.70
75615;DHT22;64199;48.578;-4.520;2023-01-29T01:04:55;22.90;43.60
75615;DHT22;64199;48.578;-4.520;2023-01-29T01:07:21;22.90;43.60
75615;DHT22;64199;48.578;-4.520;2023-01-29T01:09:47;22.90;43.60
75615;DHT22;64199;48.578;-4.520;2023-01-29T01:12:31;22.90;43.60
75615;DHT22;64199;48.578;-4.520;2023-01-29T01:14:57;23.00;43.60
75615;DHT22;64199;48.578;-4.520;2023-01-29T01:17:23;23.00;43.60
75615;DHT22;64199;48.578;-4.520;2023-01-29T01:19:49;22.90;43.60
75615;DHT22;64199;48.578;-4.520;2023-01-29T01:22:15;22.90;43.50
75615;DHT22;64199;48.578;-4.520;2023-01-29T01:24:41;23.00;43.60
75615;DHT22;64199;48.578;-4.520;2023-01-29T01:27:06;23.00;43.60
75615;DHT22;64199;48.578;-4.520;2023-01-29T01:29:32;23.00;43.60
75615;DHT22;64199;48.578;-4.520;2023-01-29T01:31:58;23.00;43.60
75615;DHT22;64199;48.578;-4.520;2023-01-29T01:34:24;23.00;43.60
75615;DHT22;64199;48.578;-4.520;2023-01-29T01:36:52;23.00;43.60
75615;DHT22;64199;48.578;-4.520;2023-01-29T01:39:18;23.00;43.50
75615;DHT22;64199;48.578;-4.520;2023-01-29T01:41:44;23.00;43.60
75615;DHT22;64199;48.578;-4.520;2023-01-29T01:46:55;23.00;43.50
75615;DHT22;64199;48.578;-4.520;2023-01-29T01:49:21;23.00;43.50
75615;DHT22;64199;48.578;-4.520;2023-01-29T01:51:49;23.00;43.50
75615;DHT22;64199;48.578;-4.520;2023-01-29T01:54:20;23.00;43.60
75615;DHT22;64199;48.578;-4.520;2023-01-29T01:56:49;23.00;43.60
75615;DHT22;64199;48.578;-4.520;2023-01-29T01:59:19;23.00;43.60
75615;DHT22;64199;48.578;-4.520;2023-01-29T02:01:48;23.00;43.60
75615;DHT22;64199;48.578;-4.520;2023-01-29T02:04:16;23.00;43.70
75615;DHT22;64199;48.578;-4.520;2023-01-29T02:07:02;23.10;43.70
75615;DHT22;64199;48.578;-4.520;2023-01-29T02:10:05;23.10;43.70
75615;DHT22;64199;48.578;-4.520;2023-01-29T02:12:32;23.10;43.70
75615;DHT22;64199;48.578;-4.520;2023-01-29T02:14:58;23.00;43.70
75615;DHT22;64199;48.578;-4.520;2023-01-29T02:17:24;23.10;43.70
75615;DHT22;64199;48.578;-4.520;2023-01-29T02:20:32;23.00;43.70
75615;DHT22;64199;48.578;-4.520;2023-01-29T02:30:43;23.10;43.70
75615;DHT22;64199;48.578;-4.520;2023-01-29T02:33:24;23.10;43.70
75615;DHT22;64199;48.578;-4.520;2023-01-29T02:41:01;23.10;43.70
75615;DHT22;64199;48.578;-4.520;2023-01-29T02:46:40;23.10;43.60
75615;DHT22;64199;48.578;-4.520;2023-01-29T02:54:13;23.00;43.50
75615;DHT22;64199;48.578;-4.520;2023-01-29T02:56:59;23.10;43.60
75615;DHT22;64199;48.578;-4.520;2023-01-29T02:59:33;23.00;43.50
75615;DHT22;64199;48.578;-4.520;2023-01-29T03:02:01;23.10;43.60
75615;DHT22;64199;48.578;-4.520;2023-01-29T03:04:30;23.00;43.60
75615;DHT22;64199;48.578;-4.520;2023-01-29T03:07:06;23.00;43.60
75615;DHT22;64199;48.578;-4.520;2023-01-29T03:12:05;23.00;43.60
75615;DHT22;64199;48.578;-4.520;2023-01-29T03:14:44;23.00;43.60
75615;DHT22;64199;48.578;-4.520;2023-01-29T03:17:33;23.00;43.60
75615;DHT22;64199;48.578;-4.520;2023-01-29T03:20:00;23.00;43.80
75615;DHT22;64199;48.578;-4.520;2023-01-29T03:22:26;23.00;43.90
75615;DHT22;64199;48.578;-4.520;2023-01-29T03:24:54;23.00;43.90
75615;DHT22;64199;48.578;-4.520;2023-01-29T03:27:45;23.00;43.80
75615;DHT22;64199;48.578;-4.520;2023-01-29T03:30:31;23.00;43.80
75615;DHT22;64199;48.578;-4.520;2023-01-29T03:33:16;23.00;43.80
75615;DHT22;64199;48.578;-4.520;2023-01-29T03:35:54;23.10;43.80
75615;DHT22;64199;48.578;-4.520;2023-01-29T03:38:22;23.00;43.80
75615;DHT22;64199;48.578;-4.520;2023-01-29T03:40:58;23.10;44.50
75615;DHT22;64199;48.578;-4.520;2023-01-29T03:43:32;23.10;43.80
75615;DHT22;64199;48.578;-4.520;2023-01-29T03:46:02;23.10;43.80
75615;DHT22;64199;48.578;-4.520;2023-01-29T04:01:50;23.10;43.70
75615;DHT22;64199;48.578;-4.520;2023-01-29T04:04:25;23.10;43.70
75615;DHT22;64199;48.578;-4.520;2023-01-29T04:06:52;23.20;43.70
75615;DHT22;64199;48.578;-4.520;2023-01-29T04:09:28;23.10;43.70
75615;DHT22;64199;48.578;-4.520;2023-01-29T04:11:57;23.10;43.70
75615;DHT22;64199;48.578;-4.520;2023-01-29T04:14:25;23.10;43.70
75615;DHT22;64199;48.578;-4.520;2023-01-29T04:16:52;23.20;43.70
75615;DHT22;64199;48.578;-4.520;2023-01-29T04:19:18;23.20;43.70
75615;DHT22;64199;48.578;-4.520;2023-01-29T04:21:44;23.10;43.60
75615;DHT22;64199;48.578;-4.520;2023-01-29T04:24:12;23.10;43.60
75615;DHT22;64199;48.578;-4.520;2023-01-29T04:26:57;23.20;43.70
75615;DHT22;64199;48.578;-4.520;2023-01-29T04:32:09;23.20;43.70
75615;DHT22;64199;48.578;-4.520;2023-01-29T04:34:47;23.10;43.60
75615;DHT22;64199;48.578;-4.520;2023-01-29T04:37:17;23.20;43.60
75615;DHT22;64199;48.578;-4.520;2023-01-29T04:39:55;23.20;43.70
75615;DHT22;64199;48.578;-4.520;2023-01-29T04:47:46;23.20;43.70
75615;DHT22;64199;48.578;-4.520;2023-01-29T04:52:44;23.20;43.70
75615;DHT22;64199;48.578;-4.520;2023-01-29T04:58:00;23.20;43.70
75615;DHT22;64199;48.578;-4.520;2023-01-29T05:00:32;23.20;43.70
75615;DHT22;64199;48.578;-4.520;2023-01-29T05:02:59;23.20;43.70
75615;DHT22;64199;48.578;-4.520;2023-01-29T05:05:26;23.20;43.70
75615;DHT22;64199;48.578;-4.520;2023-01-29T05:07:52;23.20;43.70
75615;DHT22;64199;48.578;-4.520;2023-01-29T05:10:19;23.30;43.80
75615;DHT22;64199;48.578;-4.520;2023-01-29T05:12:50;23.20;43.70
75615;DHT22;64199;48.578;-4.520;2023-01-29T05:15:22;23.20;43.70
75615;DHT22;64199;48.578;-4.520;2023-01-29T05:17:48;23.20;43.70
75615;DHT22;64199;48.578;-4.520;2023-01-29T05:20:14;23.20;43.60
75615;DHT22;64199;48.578;-4.520;2023-01-29T05:22:40;23.20;43.70
75615;DHT22;64199;48.578;-4.520;2023-01-29T05:25:23;23.20;43.70
75615;DHT22;64199;48.578;-4.520;2023-01-29T05:27:49;23.20;43.60
75615;DHT22;64199;48.578;-4.520;2023-01-29T05:30:35;23.20;43.60
75615;DHT22;64199;48.578;-4.520;2023-01-29T05:33:01;23.20;43.60
75615;DHT22;64199;48.578;-4.520;2023-01-29T05:35:27;23.20;43.60
75615;DHT22;64199;48.578;-4.520;2023-01-29T05:37:54;23.10;43.60
75615;DHT22;64199;48.578;-4.520;2023-01-29T05:40:20;23.10;43.60
75615;DHT22;64199;48.578;-4.520;2023-01-29T05:42:45;23.00;43.40
75615;DHT22;64199;48.578;-4.520;2023-01-29T05:45:11;22.90;43.30
75615;DHT22;64199;48.578;-4.520;2023-01-29T05:47:37;22.90;43.30
75615;DHT22;64199;48.578;-4.520;2023-01-29T05:50:03;22.80;43.30
75615;DHT22;64199;48.578;-4.520;2023-01-29T05:52:28;22.80;43.30
75615;DHT22;64199;48.578;-4.520;2023-01-29T05:54:54;22.80;43.30
75615;DHT22;64199;48.578;-4.520;2023-01-29T05:57:20;22.70;43.30
75615;DHT22;64199;48.578;-4.520;2023-01-29T05:59:46;22.70;43.20
75615;DHT22;64199;48.578;-4.520;2023-01-29T06:02:12;22.60;43.10
75615;DHT22;64199;48.578;-4.520;2023-01-29T06:04:37;22.60;43.30
75615;DHT22;64199;48.578;-4.520;2023-01-29T06:07:03;22.60;43.40
75615;DHT22;64199;48.578;-4.520;2023-01-29T06:09:29;22.50;43.40
75615;DHT22;64199;48.578;-4.520;2023-01-29T06:11:55;22.50;43.40
75615;DHT22;64199;48.578;-4.520;2023-01-29T06:14:20;22.40;43.40
75615;DHT22;64199;48.578;-4.520;2023-01-29T06:16:46;22.40;43.40
75615;DHT22;64199;48.578;-4.520;2023-01-29T06:19:12;22.30;44.00
75615;DHT22;64199;48.578;-4.520;2023-01-29T06:21:37;22.30;43.50
75615;DHT22;64199;48.578;-4.520;2023-01-29T06:24:03;22.20;43.40
75615;DHT22;64199;48.578;-4.520;2023-01-29T06:26:29;22.20;43.40
75615;DHT22;64199;48.578;-4.520;2023-01-29T06:28:54;22.10;43.40
75615;DHT22;64199;48.578;-4.520;2023-01-29T06:31:20;22.10;43.40
75615;DHT22;64199;48.578;-4.520;2023-01-29T06:33:46;22.10;43.50
75615;DHT22;64199;48.578;-4.520;2023-01-29T06:36:11;22.00;43.50
75615;DHT22;64199;48.578;-4.520;2023-01-29T06:38:37;22.00;43.50
75615;DHT22;64199;48.578;-4.520;2023-01-29T06:41:10;22.00;43.60
75615;DHT22;64199;48.578;-4.520;2023-01-29T06:43:36;21.90;43.60
75615;DHT22;64199;48.578;-4.520;2023-01-29T06:46:02;21.90;43.60
75615;DHT22;64199;48.578;-4.520;2023-01-29T06:48:28;21.80;43.60
75615;DHT22;64199;48.578;-4.520;2023-01-29T06:50:55;21.70;43.60
75615;DHT22;64199;48.578;-4.520;2023-01-29T06:53:20;21.70;43.60
75615;DHT22;64199;48.578;-4.520;2023-01-29T06:55:52;21.70;43.70
75615;DHT22;64199;48.578;-4.520;2023-01-29T06:58:18;21.60;43.70
75615;DHT22;64199;48.578;-4.520;2023-01-29T07:00:44;21.60;43.70
75615;DHT22;64199;48.578;-4.520;2023-01-29T07:03:10;21.60;43.60
75615;DHT22;64199;48.578;-4.520;2023-01-29T07:05:36;21.60;43.40
75615;DHT22;64199;48.578;-4.520;2023-01-29T07:08:01;21.50;43.40
75615;DHT22;64199;48.578;-4.520;2023-01-29T07:10:27;21.50;43.60
75615;DHT22;64199;48.578;-4.520;2023-01-29T07:12:53;21.50;43.60
75615;DHT22;64199;48.578;-4.520;2023-01-29T07:15:18;21.50;43.60
75615;DHT22;64199;48.578;-4.520;2023-01-29T07:17:58;21.40;43.70
75615;DHT22;64199;48.578;-4.520;2023-01-29T07:20:25;21.30;43.80
75615;DHT22;64199;48.578;-4.520;2023-01-29T07:22:51;21.30;43.80
75615;DHT22;64199;48.578;-4.520;2023-01-29T07:25:16;21.30;43.90
75615;DHT22;64199;48.578;-4.520;2023-01-29T07:27:42;21.20;43.90
75615;DHT22;64199;48.578;-4.520;2023-01-29T07:30:08;21.20;43.90
75615;DHT22;64199;48.578;-4.520;2023-01-29T07:32:34;21.20;44.00
75615;DHT22;64199;48.578;-4.520;2023-01-29T07:34:59;21.20;43.90
75615;DHT22;64199;48.578;-4.520;2023-01-29T07:37:25;21.10;43.90
75615;DHT22;64199;48.578;-4.520;2023-01-29T07:39:51;21.20;44.00
75615;DHT22;64199;48.578;-4.520;2023-01-29T07:42:16;21.20;44.00
75615;DHT22;64199;48.578;-4.520;2023-01-29T07:44:42;21.20;44.00
75615;DHT22;64199;48.578;-4.520;2023-01-29T07:47:08;21.20;44.10
75615;DHT22;64199;48.578;-4.520;2023-01-29T07:49:33;21.20;44.00
75615;DHT22;64199;48.578;-4.520;2023-01-29T07:51:59;21.20;44.10
75615;DHT22;64199;48.578;-4.520;2023-01-29T07:54:25;21.20;44.20
75615;DHT22;64199;48.578;-4.520;2023-01-29T07:56:50;21.20;44.20
75615;DHT22;64199;48.578;-4.520;2023-01-29T07:59:16;21.20;44.20
75615;DHT22;64199;48.578;-4.520;2023-01-29T08:01:42;21.30;44.30
75615;DHT22;64199;48.578;-4.520;2023-01-29T08:04:07;21.20;44.30
75615;DHT22;64199;48.578;-4.520;2023-01-29T08:06:33;21.30;44.40
75615;DHT22;64199;48.578;-4.520;2023-01-29T08:08:58;21.30;44.40
75615;DHT22;64199;48.578;-4.520;2023-01-29T08:11:24;21.30;44.40
75615;DHT22;64199;48.578;-4.520;2023-01-29T08:13:50;21.30;44.50
75615;DHT22;64199;48.578;-4.520;2023-01-29T08:16:16;21.30;44.50
75615;DHT22;64199;48.578;-4.520;2023-01-29T08:18:41;21.30;44.50
75615;DHT22;64199;48.578;-4.520;2023-01-29T08:21:10;21.30;44.40
75615;DHT22;64199;48.578;-4.520;2023-01-29T08:23:36;21.40;44.50
75615;DHT22;64199;48.578;-4.520;2023-01-29T08:26:02;21.40;44.50
75615;DHT22;64199;48.578;-4.520;2023-01-29T08:28:27;21.40;44.50
75615;DHT22;64199;48.578;-4.520;2023-01-29T08:30:53;21.40;44.50
75615;DHT22;64199;48.578;-4.520;2023-01-29T08:33:19;21.40;44.50
75615;DHT22;64199;48.578;-4.520;2023-01-29T08:35:50;21.40;44.50
75615;DHT22;64199;48.578;-4.520;2023-01-29T08:38:16;21.40;44.50
75615;DHT22;64199;48.578;-4.520;2023-01-29T08:40:42;21.40;44.50
75615;DHT22;64199;48.578;-4.520;2023-01-29T08:43:09;21.40;44.50
75615;DHT22;64199;48.578;-4.520;2023-01-29T08:45:35;21.40;44.50
75615;DHT22;64199;48.578;-4.520;2023-01-29T08:48:01;21.40;44.50
75615;DHT22;64199;48.578;-4.520;2023-01-29T08:50:27;21.40;44.50
75615;DHT22;64199;48.578;-4.520;2023-01-29T08:52:58;21.50;44.60
75615;DHT22;64199;48.578;-4.520;2023-01-29T08:55:24;21.50;44.60
75615;DHT22;64199;48.578;-4.520;2023-01-29T08:57:50;21.50;44.60
75615;DHT22;64199;48.578;-4.520;2023-01-29T09:00:16;21.50;44.60
75615;DHT22;64199;48.578;-4.520;2023-01-29T09:02:41;21.50;44.60
75615;DHT22;64199;48.578;-4.520;2023-01-29T09:05:07;21.50;44.60
75615;DHT22;64199;48.578;-4.520;2023-01-29T09:07:33;21.50;44.70
75615;DHT22;64199;48.578;-4.520;2023-01-29T09:09:59;21.50;44.70
75615;DHT22;64199;48.578;-4.520;2023-01-29T09:12:25;21.50;44.80
75615;DHT22;64199;48.578;-4.520;2023-01-29T09:14:51;21.50;44.80
75615;DHT22;64199;48.578;-4.520;2023-01-29T09:17:16;21.60;44.80
75615;DHT22;64199;48.578;-4.520;2023-01-29T09:19:42;21.60;44.80
75615;DHT22;64199;48.578;-4.520;2023-01-29T09:22:07;21.60;44.60
75615;DHT22;64199;48.578;-4.520;2023-01-29T09:24:33;21.60;44.50
75615;DHT22;64199;48.578;-4.520;2023-01-29T09:26:59;21.60;44.40
75615;DHT22;64199;48.578;-4.520;2023-01-29T09:29:25;21.60;44.40
75615;DHT22;64199;48.578;-4.520;2023-01-29T09:31:51;21.60;44.50
75615;DHT22;64199;48.578;-4.520;2023-01-29T09:34:17;21.60;44.40
75615;DHT22;64199;48.578;-4.520;2023-01-29T09:36:42;21.60;44.50
75615;DHT22;64199;48.578;-4.520;2023-01-29T09:39:08;21.70;44.60
75615;DHT22;64199;48.578;-4.520;2023-01-29T09:44:03;21.60;44.60
75615;DHT22;64199;48.578;-4.520;2023-01-29T09:46:40;21.70;44.70
75615;DHT22;64199;48.578;-4.520;2023-01-29T09:49:09;21.70;44.60
75615;DHT22;64199;48.578;-4.520;2023-01-29T09:51:40;21.70;44.70
75615;DHT22;64199;48.578;-4.520;2023-01-29T09:54:12;21.70;44.70
75615;DHT22;64199;48.578;-4.520;2023-01-29T09:56:41;21.70;44.60
75615;DHT22;64199;48.578;-4.520;2023-01-29T09:59:07;21.70;44.60
75615;DHT22;64199;48.578;-4.520;2023-01-29T10:01:41;21.70;44.70
75615;DHT22;64199;48.578;-4.520;2023-01-29T10:14:40;21.70;44.70
75615;DHT22;64199;48.578;-4.520;2023-01-29T10:17:23;21.70;44.70
75615;DHT22;64199;48.578;-4.520;2023-01-29T10:22:40;21.70;44.80
75615;DHT22;64199;48.578;-4.520;2023-01-29T10:25:17;21.80;44.80
75615;DHT22;64199;48.578;-4.520;2023-01-29T10:27:47;21.80;44.80
75615;DHT22;64199;48.578;-4.520;2023-01-29T10:32:46;21.80;44.80
75615;DHT22;64199;48.578;-4.520;2023-01-29T10:35:17;21.80;44.90
75615;DHT22;64199;48.578;-4.520;2023-01-29T10:37:45;21.80;44.80
75615;DHT22;64199;48.578;-4.520;2023-01-29T10:42:48;21.80;44.90
75615;DHT22;64199;48.578;-4.520;2023-01-29T10:50:39;21.80;44.90
75615;DHT22;64199;48.578;-4.520;2023-01-29T11:00:49;21.80;44.80
75615;DHT22;64199;48.578;-4.520;2023-01-29T11:03:16;21.80;44.80
75615;DHT22;64199;48.578;-4.520;2023-01-29T11:06:08;21.80;44.80
75615;DHT22;64199;48.578;-4.520;2023-01-29T11:11:16;21.80;44.60
75615;DHT22;64199;48.578;-4.520;2023-01-29T11:14:04;21.90;44.70
75615;DHT22;64199;48.578;-4.520;2023-01-29T11:16:31;21.80;44.70
75615;DHT22;64199;48.578;-4.520;2023-01-29T11:19:04;21.90;44.60
75615;DHT22;64199;48.578;-4.520;2023-01-29T11:21:29;21.90;44.60
75615;DHT22;64199;48.578;-4.520;2023-01-29T11:24:11;21.90;44.60
75615;DHT22;64199;48.578;-4.520;2023-01-29T11:26:39;21.90;44.50
75615;DHT22;64199;48.578;-4.520;2023-01-29T11:29:51;21.90;44.50
75615;DHT22;64199;48.578;-4.520;2023-01-29T11:31:52;21.90;44.50
75615;DHT22;64199;48.578;-4.520;2023-01-29T11:34:21;21.90;44.50
75615;DHT22;64199;48.578;-4.520;2023-01-29T11:36:56;21.90;44.50
75615;DHT22;64199;48.578;-4.520;2023-01-29T11:39:22;21.90;44.50
75615;DHT22;64199;48.578;-4.520;2023-01-29T11:41:55;21.90;44.40
75615;DHT22;64199;48.578;-4.520;2023-01-29T11:44:42;21.90;44.40
75615;DHT22;64199;48.578;-4.520;2023-01-29T11:47:11;21.90;45.00
75615;DHT22;64199;48.578;-4.520;2023-01-29T11:49:37;22.00;44.40
75615;DHT22;64199;48.578;-4.520;2023-01-29T11:52:06;21.90;44.40
75615;DHT22;64199;48.578;-4.520;2023-01-29T11:54:37;22.00;44.40
75615;DHT22;64199;48.578;-4.520;2023-01-29T11:57:04;22.00;44.40
75615;DHT22;64199;48.578;-4.520;2023-01-29T11:59:42;22.00;44.40
75615;DHT22;64199;48.578;-4.520;2023-01-29T12:04:41;22.00;44.40
75615;DHT22;64199;48.578;-4.520;2023-01-29T12:07:10;22.00;44.40
75615;DHT22;64199;48.578;-4.520;2023-01-29T12:09:37;22.00;44.40
75615;DHT22;64199;48.578;-4.520;2023-01-29T12:12:48;22.00;44.50
75615;DHT22;64199;48.578;-4.520;2023-01-29T12:14:52;22.10;44.50
75615;DHT22;64199;48.578;-4.520;2023-01-29T12:17:26;22.00;44.40
75615;DHT22;64199;48.578;-4.520;2023-01-29T12:19:54;22.00;44.40
75615;DHT22;64199;48.578;-4.520;2023-01-29T12:22:37;22.10;44.40
75615;DHT22;64199;48.578;-4.520;2023-01-29T12:25:17;22.10;44.40
75615;DHT22;64199;48.578;-4.520;2023-01-29T12:27:55;22.10;44.40
75615;DHT22;64199;48.578;-4.520;2023-01-29T12:30:24;22.10;44.40
75615;DHT22;64199;48.578;-4.520;2023-01-29T12:33:03;22.10;44.40
75615;DHT22;64199;48.578;-4.520;2023-01-29T12:35:34;22.10;44.40
75615;DHT22;64199;48.578;-4.520;2023-01-29T12:40:54;22.10;44.40
75615;DHT22;64199;48.578;-4.520;2023-01-29T12:43:22;22.10;44.40
75615;DHT22;64199;48.578;-4.520;2023-01-29T12:45:51;22.10;44.40
75615;DHT22;64199;48.578;-4.520;2023-01-29T12:48:20;22.10;44.40
75615;DHT22;64199;48.578;-4.520;2023-01-29T12:50:46;22.10;44.40
75615;DHT22;64199;48.578;-4.520;2023-01-29T12:55:43;22.20;44.40
75615;DHT22;64199;48.578;-4.520;2023-01-29T12:58:16;22.20;44.40
75615;DHT22;64199;48.578;-4.520;2023-01-29T13:00:47;22.10;44.50
75615;DHT22;64199;48.578;-4.520;2023-01-29T13:05:54;22.20;44.50
75615;DHT22;64199;48.578;-4.520;2023-01-29T13:08:40;22.20;44.50
75615;DHT22;64199;48.578;-4.520;2023-01-29T13:11:09;22.20;44.40
75615;DHT22;64199;48.578;-4.520;2023-01-29T13:13:37;22.20;44.40
75615;DHT22;64199;48.578;-4.520;2023-01-29T13:16:08;22.20;44.40
75615;DHT22;64199;48.578;-4.520;2023-01-29T13:21:12;22.20;45.00
75615;DHT22;64199;48.578;-4.520;2023-01-29T13:23:41;22.20;44.50
75615;DHT22;64199;48.578;-4.520;2023-01-29T13:26:07;22.30;44.50
75615;DHT22;64199;48.578;-4.520;2023-01-29T13:28:33;22.30;44.50
75615;DHT22;64199;48.578;-4.520;2023-01-29T13:33:36;22.30;44.30
75615;DHT22;64199;48.578;-4.520;2023-01-29T13:36:03;22.30;44.40
75615;DHT22;64199;48.578;-4.520;2023-01-29T13:38:30;22.30;44.30
75615;DHT22;64199;48.578;-4.520;2023-01-29T13:41:02;22.30;44.30
75615;DHT22;64199;48.578;-4.520;2023-01-29T13:43:31;22.30;44.30
75615;DHT22;64199;48.578;-4.520;2023-01-29T13:45:59;22.30;44.30
75615;DHT22;64199;48.578;-4.520;2023-01-29T13:48:31;22.30;44.30
75615;DHT22;64199;48.578;-4.520;2023-01-29T13:51:01;22.30;44.30
75615;DHT22;64199;48.578;-4.520;2023-01-29T13:53:30;22.30;44.30
75615;DHT22;64199;48.578;-4.520;2023-01-29T14:01:07;22.30;44.30
75615;DHT22;64199;48.578;-4.520;2023-01-29T14:03:43;22.40;44.30
75615;DHT22;64199;48.578;-4.520;2023-01-29T14:06:08;22.40;44.30
75615;DHT22;64199;48.578;-4.520;2023-01-29T14:13:38;22.40;44.30
75615;DHT22;64199;48.578;-4.520;2023-01-29T14:18:30;22.40;44.30
75615;DHT22;64199;48.578;-4.520;2023-01-29T14:20:57;22.40;44.30
75615;DHT22;64199;48.578;-4.520;2023-01-29T14:23:40;22.40;44.20
75615;DHT22;64199;48.578;-4.520;2023-01-29T14:28:53;22.40;44.20
75615;DHT22;64199;48.578;-4.520;2023-01-29T14:34:05;22.40;44.20
75615;DHT22;64199;48.578;-4.520;2023-01-29T14:36:41;22.40;44.20
75615;DHT22;64199;48.578;-4.520;2023-01-29T14:39:26;22.40;44.20
75615;DHT22;64199;48.578;-4.520;2023-01-29T14:41:52;22.40;44.20
75615;DHT22;64199;48.578;-4.520;2023-01-29T14:47:02;22.40;44.20
75615;DHT22;64199;48.578;-4.520;2023-01-29T14:52:13;22.40;44.20
75615;DHT22;64199;48.578;-4.520;2023-01-29T14:54:39;22.50;44.20
75615;DHT22;64199;48.578;-4.520;2023-01-29T14:57:05;22.50;44.20
75615;DHT22;64199;48.578;-4.520;2023-01-29T15:02:21;22.50;44.20
75615;DHT22;64199;48.578;-4.520;2023-01-29T15:04:48;22.50;44.20
75615;DHT22;64199;48.578;-4.520;2023-01-29T15:07:37;22.50;44.20
75615;DHT22;64199;48.578;-4.520;2023-01-29T15:12:47;22.50;44.20
75615;DHT22;64199;48.578;-4.520;2023-01-29T15:15:23;22.50;44.20
75615;DHT22;64199;48.578;-4.520;2023-01-29T15:20:32;22.50;44.20
75615;DHT22;64199;48.578;-4.520;2023-01-29T15:22:58;22.50;44.20
75615;DHT22;64199;48.578;-4.520;2023-01-29T15:25:24;22.50;44.30
75615;DHT22;64199;48.578;-4.520;2023-01-29T15:27:52;22.50;44.30
75615;DHT22;64199;48.578;-4.520;2023-01-29T15:30:22;22.50;44.30
75615;DHT22;64199;48.578;-4.520;2023-01-29T15:32:50;22.50;44.30
75615;DHT22;64199;48.578;-4.520;2023-01-29T15:35:26;22.50;44.30
75615;DHT22;64199;48.578;-4.520;2023-01-29T15:38:03;22.50;44.30
75615;DHT22;64199;48.578;-4.520;2023-01-29T15:40:29;22.50;44.20
75615;DHT22;64199;48.578;-4.520;2023-01-29T15:42:55;22.50;44.20
75615;DHT22;64199;48.578;-4.520;2023-01-29T15:45:21;22.50;44.20
75615;DHT22;64199;48.578;-4.520;2023-01-29T15:47:47;22.50;44.10
75615;DHT22;64199;48.578;-4.520;2023-01-29T15:50:13;22.50;44.10
75615;DHT22;64199;48.578;-4.520;2023-01-29T15:52:38;22.50;44.10
75615;DHT22;64199;48.578;-4.520;2023-01-29T15:55:04;22.50;44.10
75615;DHT22;64199;48.578;-4.520;2023-01-29T15:57:33;22.50;44.70
75615;DHT22;64199;48.578;-4.520;2023-01-29T16:00:02;22.50;44.10
75615;DHT22;64199;48.578;-4.520;2023-01-29T16:02:39;22.50;44.10
75615;DHT22;64199;48.578;-4.520;2023-01-29T16:05:26;22.60;44.10
75615;DHT22;64199;48.578;-4.520;2023-01-29T16:07:51;22.60;44.10
75615;DHT22;64199;48.578;-4.520;2023-01-29T16:10:34;22.60;44.10
75615;DHT22;64199;48.578;-4.520;2023-01-29T16:13:00;22.60;44.10
75615;DHT22;64199;48.578;-4.520;2023-01-29T16:15:34;22.60;44.10
75615;DHT22;64199;48.578;-4.520;2023-01-29T16:18:01;22.60;44.10
75615;DHT22;64199;48.578;-4.520;2023-01-29T16:20:35;22.60;44.10
75615;DHT22;64199;48.578;-4.520;2023-01-29T16:23:01;22.60;44.10
75615;DHT22;64199;48.578;-4.520;2023-01-29T16:25:27;22.60;44.10
75615;DHT22;64199;48.578;-4.520;2023-01-29T16:27:54;22.60;44.10
75615;DHT22;64199;48.578;-4.520;2023-01-29T16:30:19;22.60;44.10
75615;DHT22;64199;48.578;-4.520;2023-01-29T16:32:49;22.60;44.10
75615;DHT22;64199;48.578;-4.520;2023-01-29T16:35:15;22.60;44.00
75615;DHT22;64199;48.578;-4.520;2023-01-29T16:37:41;22.60;44.00
75615;DHT22;64199;48.578;-4.520;2023-01-29T16:40:14;22.70;44.20
75615;DHT22;64199;48.578;-4.520;2023-01-29T16:42:40;22.70;44.10
75615;DHT22;64199;48.578;-4.520;2023-01-29T16:45:27;22.70;44.10
75615;DHT22;64199;48.578;-4.520;2023-01-29T16:47:58;22.60;44.00
75615;DHT22;64199;48.578;-4.520;2023-01-29T16:50:32;22.70;44.10
75615;DHT22;64199;48.578;-4.520;2023-01-29T16:53:02;22.70;44.20
75615;DHT22;64199;48.578;-4.520;2023-01-29T16:55:32;22.70;44.10
75615;DHT22;64199;48.578;-4.520;2023-01-29T16:58:01;22.70;44.20
75615;DHT22;64199;48.578;-4.520;2023-01-29T17:00:28;22.70;44.10
75615;DHT22;64199;48.578;-4.520;2023-01-29T17:02:55;22.70;44.20
75615;DHT22;64199;48.578;-4.520;2023-01-29T17:05:27;22.70;44.10
75615;DHT22;64199;48.578;-4.520;2023-01-29T17:07:56;22.70;44.10
75615;DHT22;64199;48.578;-4.520;2023-01-29T17:10:23;22.70;44.10
75615;DHT22;64199;48.578;-4.520;2023-01-29T17:12:52;22.70;44.70
75615;DHT22;64199;48.578;-4.520;2023-01-29T17:16:01;22.70;44.20
75615;DHT22;64199;48.578;-4.520;2023-01-29T17:18:17;22.70;44.20
75615;DHT22;64199;48.578;-4.520;2023-01-29T17:20:43;22.80;44.20
75615;DHT22;64199;48.578;-4.520;2023-01-29T17:23:09;22.70;44.20
75615;DHT22;64199;48.578;-4.520;2023-01-29T17:25:34;22.80;44.20
75615;DHT22;64199;48.578;-4.520;2023-01-29T17:28:00;22.80;44.10
75615;DHT22;64199;48.578;-4.520;2023-01-29T17:30:29;22.80;44.20
75615;DHT22;64199;48.578;-4.520;2023-01-29T17:32:55;22.80;44.20
75615;DHT22;64199;48.578;-4.520;2023-01-29T17:35:20;22.80;44.10
75615;DHT22;64199;48.578;-4.520;2023-01-29T17:37:46;22.80;44.10
75615;DHT22;64199;48.578;-4.520;2023-01-29T17:40:17;22.80;44.10
75615;DHT22;64199;48.578;-4.520;2023-01-29T17:42:45;22.80;44.10
75615;DHT22;64199;48.578;-4.520;2023-01-29T17:45:11;22.80;44.10
75615;DHT22;64199;48.578;-4.520;2023-01-29T17:47:37;22.80;44.10